createdAt,value
2018-01-22T00:02:24.080Z,90.20
2018-01-22T00:07:27.160Z,90.40
2018-01-22T00:12:31.380Z,90.10
2018-01-22T00:17:35.964Z,90.00
2018-01-22T00:22:39.042Z,89.50
2018-01-22T00:27:42.900Z,90.00
2018-01-22T00:32:45.975Z,88.60
2018-01-22T00:37:49.804Z,89.00
2018-01-22T00:42:53.652Z,88.40
2018-01-22T00:47:56.724Z,88.40
2018-01-22T00:53:00.201Z,88.20
2018-01-22T00:58:03.297Z,87.80
2018-01-22T01:03:06.378Z,87.50
2018-01-22T01:08:10.220Z,87.70
2018-01-22T01:13:14.062Z,87.90
2018-01-22T01:18:17.899Z,87.60
2018-01-22T01:23:20.980Z,88.90
2018-01-22T01:28:24.060Z,88.00
2018-01-22T01:33:27.137Z,88.40
2018-01-22T01:38:30.209Z,89.00
2018-01-22T01:43:33.288Z,88.90
2018-01-22T01:48:36.369Z,88.90
2018-01-22T01:53:40.203Z,90.00
2018-01-22T01:58:44.048Z,88.80
2018-01-22T02:03:48.263Z,88.70
2018-01-22T02:08:52.100Z,90.00
2018-01-22T02:13:55.172Z,90.00
2018-01-22T02:18:58.240Z,90.00
2018-01-22T02:24:02.814Z,90.10
2018-01-22T02:29:05.888Z,90.20
2018-01-22T02:34:08.966Z,90.30
2018-01-22T02:39:12.435Z,90.50
2018-01-22T02:44:15.507Z,90.70
2018-01-22T02:49:18.592Z,90.60
2018-01-22T02:54:22.444Z,90.60
2018-01-22T03:04:30.706Z,90.60
2018-01-22T03:09:33.780Z,90.50
2018-01-22T03:19:42.783Z,90.50
2018-01-22T03:24:47.363Z,90.40
2018-01-22T03:29:51.575Z,90.30
2018-01-22T03:34:55.403Z,90.20
2018-01-22T03:39:58.487Z,90.20
2018-01-22T03:45:01.573Z,90.00
2018-01-22T03:55:09.063Z,90.00
2018-01-22T04:00:12.528Z,90.20
2018-01-22T04:05:15.996Z,90.20
2018-01-22T04:10:19.835Z,90.20
2018-01-22T04:25:31.777Z,90.20
2018-01-22T04:35:40.786Z,90.40
2018-01-22T04:40:44.995Z,90.40
2018-01-22T04:45:48.067Z,90.70
2018-01-22T04:50:51.904Z,90.90
2018-01-22T05:00:59.404Z,90.80
2018-01-22T05:11:07.667Z,90.90
2018-01-22T05:21:15.178Z,91.40
2018-01-22T05:26:18.250Z,91.20
2018-01-22T05:31:21.329Z,91.10
2018-01-22T05:36:24.384Z,91.10
2018-01-22T05:46:31.865Z,91.30
2018-01-22T05:51:35.699Z,91.50
2018-01-22T06:01:43.194Z,91.80
2018-01-22T06:06:47.022Z,91.60
2018-01-22T06:16:55.297Z,91.70
2018-01-22T06:21:58.362Z,91.80
2018-01-22T06:27:02.192Z,91.60
2018-01-22T06:32:06.033Z,91.50
2018-01-22T06:37:10.246Z,91.70
2018-01-22T06:42:14.074Z,91.50
2018-01-22T06:47:18.286Z,91.50
2018-01-22T06:52:21.346Z,91.50
2018-01-22T07:02:29.604Z,91.60
2018-01-22T07:07:33.122Z,91.70
2018-01-22T07:17:41.022Z,92.00
2018-01-22T07:22:44.863Z,92.00
2018-01-22T07:27:48.328Z,91.90
2018-01-22T07:32:51.387Z,91.90
2018-01-22T07:37:54.450Z,91.90
2018-01-22T07:42:58.283Z,91.80
2018-01-22T07:48:02.120Z,91.80
2018-01-22T07:53:05.182Z,91.70
2018-01-22T07:58:09.403Z,91.80
2018-01-22T08:08:17.291Z,91.90
2018-01-22T08:13:20.347Z,91.90
2018-01-22T08:18:23.410Z,91.80
2018-01-22T08:23:26.499Z,91.80
2018-01-22T08:28:29.573Z,91.90
2018-01-22T08:38:37.456Z,92.10
2018-01-22T08:48:45.347Z,91.80
2018-01-22T08:53:48.418Z,91.70
2018-01-22T08:58:51.491Z,91.70
2018-01-22T09:03:54.554Z,91.70
2018-01-22T09:08:58.404Z,91.90
2018-01-22T09:14:01.868Z,91.80
2018-01-22T09:24:10.873Z,91.70
2018-01-22T09:34:19.150Z,91.80
2018-01-22T09:39:22.215Z,91.80
2018-01-22T09:49:29.716Z,92.10
2018-01-22T09:54:32.803Z,92.20
2018-01-22T09:59:36.649Z,92.20
2018-01-22T10:04:39.735Z,92.20
2018-01-22T10:09:42.818Z,92.10
2018-01-22T10:14:45.903Z,92.20
2018-01-22T10:19:50.116Z,92.20
2018-01-22T10:29:58.421Z,92.00
2018-01-22T10:35:01.498Z,91.80
2018-01-22T10:40:04.582Z,91.90
2018-01-22T10:45:07.679Z,92.10
2018-01-22T10:50:11.146Z,92.50
2018-01-22T10:55:14.986Z,92.50
2018-01-22T11:00:18.832Z,92.60
2018-01-22T11:05:23.035Z,92.70
2018-01-22T11:10:26.879Z,92.90
2018-01-22T11:15:35.612Z,92.20
2018-01-22T11:20:38.696Z,91.70
2018-01-22T11:25:42.167Z,91.50
2018-01-22T11:40:55.286Z,91.30
2018-01-22T11:45:59.148Z,91.10
2018-01-22T11:56:06.638Z,91.00
2018-01-22T12:06:15.004Z,91.00
2018-01-22T12:11:18.091Z,90.90
2018-01-22T12:16:21.171Z,91.00
2018-01-22T12:21:25.022Z,90.90
2018-01-22T12:26:28.538Z,90.70
2018-01-22T12:31:32.050Z,90.50
2018-01-22T12:36:35.169Z,90.30
2018-01-22T12:41:38.247Z,90.30
2018-01-22T12:46:42.461Z,90.30
2018-01-22T12:51:45.539Z,90.20
2018-01-22T12:56:49.412Z,90.30
2018-01-22T13:01:52.484Z,90.00
2018-01-22T13:06:56.324Z,90.00
2018-01-22T13:11:59.419Z,89.80
2018-01-22T13:17:02.503Z,89.50
2018-01-22T13:22:06.191Z,89.30
2018-01-22T13:27:10.031Z,88.60
2018-01-22T13:32:13.111Z,87.90
2018-01-22T13:37:16.963Z,87.90
2018-01-22T13:42:20.433Z,88.00
2018-01-22T13:47:23.509Z,88.40
2018-01-22T13:52:26.592Z,88.10
2018-01-22T13:57:29.693Z,87.80
2018-01-22T14:02:32.783Z,87.80
2018-01-22T14:07:36.630Z,87.80
2018-01-22T14:12:40.507Z,87.30
2018-01-22T14:17:44.354Z,87.30
2018-01-22T14:22:48.199Z,87.50
2018-01-22T14:27:51.692Z,86.20
2018-01-22T14:32:55.172Z,85.90
2018-01-22T14:37:59.003Z,86.10
2018-01-22T14:43:02.482Z,86.10
2018-01-22T14:53:10.404Z,84.90
2018-01-22T14:58:15.002Z,84.20
2018-01-22T15:03:18.074Z,84.90
2018-01-22T15:13:26.338Z,85.40
2018-01-22T15:18:29.839Z,85.10
2018-01-22T15:23:33.687Z,86.40
2018-01-22T15:28:36.772Z,86.20
2018-01-22T15:33:40.627Z,86.90
2018-01-22T15:38:43.706Z,87.30
2018-01-22T15:53:55.643Z,87.10
2018-01-22T15:58:59.858Z,87.40
2018-01-22T16:04:03.706Z,87.70
2018-01-22T16:09:06.843Z,88.10
2018-01-22T16:14:09.914Z,88.80
2018-01-22T16:19:12.994Z,88.50
2018-01-22T16:24:16.826Z,87.80
2018-01-22T16:29:19.904Z,87.80
2018-01-22T16:44:32.336Z,87.80
2018-01-22T16:49:35.486Z,87.70
2018-01-22T16:54:38.971Z,88.10
2018-01-22T17:04:46.503Z,88.40
2018-01-22T17:09:50.576Z,88.10
2018-01-22T17:14:54.414Z,88.30
2018-01-22T17:19:57.893Z,88.80
2018-01-22T17:25:01.734Z,88.40
2018-01-22T17:30:05.607Z,88.20
2018-01-22T17:35:09.102Z,88.60
2018-01-22T17:40:13.327Z,88.20
2018-01-22T17:45:16.418Z,88.40
2018-01-22T18:00:29.204Z,87.10
2018-01-22T18:05:33.483Z,87.20
2018-01-22T18:10:36.623Z,86.50
2018-01-22T18:15:41.216Z,84.40
2018-01-22T18:20:44.707Z,84.10
2018-01-22T18:25:47.790Z,84.70
2018-01-22T18:30:50.863Z,85.30
2018-01-22T18:35:54.759Z,86.00
2018-01-22T18:40:57.834Z,85.50
2018-01-22T18:56:10.546Z,85.80
2018-01-22T19:01:13.639Z,85.80
2018-01-22T19:11:21.561Z,85.60
2018-01-22T19:16:25.736Z,85.80
2018-01-22T19:21:29.213Z,85.90
2018-01-22T19:26:32.727Z,85.70
2018-01-22T19:31:36.563Z,85.80
2018-01-22T19:36:41.042Z,85.70
2018-01-22T19:41:45.278Z,85.60
2018-01-22T19:46:48.390Z,85.30
2018-01-22T19:51:53.016Z,85.10
2018-01-22T19:56:57.598Z,84.50
2018-01-22T20:02:00.679Z,84.50
2018-01-22T20:07:03.770Z,84.50
2018-01-22T20:12:07.951Z,85.30
2018-01-22T20:22:16.483Z,85.30
2018-01-22T20:27:20.318Z,84.90
2018-01-22T20:32:23.402Z,85.00
2018-01-22T20:37:28.455Z,84.70
2018-01-22T20:47:35.974Z,84.50
2018-01-22T20:52:39.442Z,84.80
2018-01-22T20:57:43.654Z,84.90
2018-01-22T21:02:47.492Z,85.20
2018-01-22T21:07:50.971Z,84.80
2018-01-22T21:12:54.071Z,84.70
2018-01-22T21:17:58.297Z,84.90
2018-01-22T21:23:02.155Z,84.80
2018-01-22T21:28:06.369Z,85.00
2018-01-22T21:38:14.647Z,84.70
2018-01-22T21:43:17.728Z,85.10
2018-01-22T21:48:21.576Z,84.70
2018-01-22T21:53:24.661Z,84.80
2018-01-22T21:58:27.726Z,84.90
2018-01-22T22:03:31.577Z,85.50
2018-01-22T22:08:35.432Z,85.50
2018-01-22T22:13:39.286Z,85.60
2018-01-22T22:18:42.355Z,85.60
2018-01-22T22:23:45.459Z,85.50
2018-01-22T22:28:49.383Z,86.10
2018-01-22T22:33:52.497Z,85.10
2018-01-22T22:38:56.203Z,85.60
2018-01-22T22:43:59.486Z,86.30
2018-01-22T22:54:07.410Z,86.90
2018-01-22T23:04:16.115Z,88.60
2018-01-22T23:09:19.192Z,88.80
2018-01-22T23:14:22.276Z,89.30
2018-01-22T23:19:26.515Z,89.30
2018-01-22T23:24:31.108Z,89.30
2018-01-22T23:29:34.941Z,89.90
2018-01-22T23:34:38.021Z,89.50
2018-01-22T23:39:42.253Z,90.00
2018-01-22T23:44:45.340Z,89.70
2018-01-22T23:49:48.435Z,90.00
2018-01-22T23:59:57.114Z,90.00
